< < Back
Terminal Aerodrome Forecast


Current Version              Previous Versions:   1  2  3  4  5  6  7  8  9  

Terminal Aerodrome Forecast

753
FTUS42 KCHS 010759 AAA
TAFSAV
TAF AMD
KSAV 010759Z 0108/0206 16007KT P6SM VCSH SCT025 BKN050
     FM011400 17007KT P6SM SCT030
     FM020300 18005KT P6SM SCT020=

Latest METAR

890
SAUS80 KWBC 010900 RRH
MTRSAV
METAR KSAV 010853Z AUTO 15007KT 10SM FEW015 23/22 A3001 RMK AO2 SLP163
T02330217 56010 TSNO $


USA.gov is the U.S. government's official web portal to all federal, state and local government web resources and services.